sensor_id;sensor_type;location;lat;lon;timestamp;pressure;altitude;pressure_sealevel;temperature;humidity
50977;BME280;36992;48.200;12.418;2023-05-12T00:00:49;96405.75;;;14.01;58.75
50977;BME280;36992;48.200;12.418;2023-05-12T00:03:15;96403.38;;;13.99;58.41
50977;BME280;36992;48.200;12.418;2023-05-12T00:05:42;96413.41;;;13.99;58.32
50977;BME280;36992;48.200;12.418;2023-05-12T00:08:10;96406.84;;;14.00;58.67
50977;BME280;36992;48.200;12.418;2023-05-12T00:10:37;96410.22;;;13.97;58.58
50977;BME280;36992;48.200;12.418;2023-05-12T00:13:03;96400.50;;;13.96;58.54
50977;BME280;36992;48.200;12.418;2023-05-12T00:15:30;96398.91;;;13.95;58.00
50977;BME280;36992;48.200;12.418;2023-05-12T00:17:56;96395.41;;;13.94;58.73
50977;BME280;36992;48.200;12.418;2023-05-12T00:20:23;96397.81;;;13.96;58.90
50977;BME280;36992;48.200;12.418;2023-05-12T00:22:49;96402.41;;;13.95;58.29
50977;BME280;36992;48.200;12.418;2023-05-12T00:25:17;96398.59;;;13.96;58.58
50977;BME280;36992;48.200;12.418;2023-05-12T00:27:44;96397.81;;;13.96;58.96
50977;BME280;36992;48.200;12.418;2023-05-12T00:30:11;96395.88;;;13.96;58.58
50977;BME280;36992;48.200;12.418;2023-05-12T00:32:37;96386.16;;;13.95;58.46
50977;BME280;36992;48.200;12.418;2023-05-12T00:35:04;96386.97;;;13.96;58.53
50977;BME280;36992;48.200;12.418;2023-05-12T00:37:31;96388.06;;;13.95;58.83
50977;BME280;36992;48.200;12.418;2023-05-12T00:39:57;96387.28;;;13.94;58.77
50977;BME280;36992;48.200;12.418;2023-05-12T00:42:25;96382.66;;;13.95;58.32
50977;BME280;36992;48.200;12.418;2023-05-12T00:44:51;96377.91;;;13.92;58.22
50977;BME280;36992;48.200;12.418;2023-05-12T00:47:18;96384.44;;;13.91;58.38
50977;BME280;36992;48.200;12.418;2023-05-12T00:49:45;96378.53;;;13.88;58.24
50977;BME280;36992;48.200;12.418;2023-05-12T00:52:12;96376.94;;;13.87;57.79
50977;BME280;36992;48.200;12.418;2023-05-12T00:54:39;96385.06;;;13.87;58.51
50977;BME280;36992;48.200;12.418;2023-05-12T00:57:07;96377.44;;;13.89;58.62
50977;BME280;36992;48.200;12.418;2023-05-12T00:59:35;96382.19;;;13.93;58.49
50977;BME280;36992;48.200;12.418;2023-05-12T01:02:02;96390.63;;;13.91;58.46
50977;BME280;36992;48.200;12.418;2023-05-12T01:04:28;96386.03;;;13.92;58.45
50977;BME280;36992;48.200;12.418;2023-05-12T01:06:58;96386.63;;;13.97;58.22
50977;BME280;36992;48.200;12.418;2023-05-12T01:09:29;96390.78;;;13.95;58.80
50977;BME280;36992;48.200;12.418;2023-05-12T01:11:55;96386.97;;;13.96;58.53
50977;BME280;36992;48.200;12.418;2023-05-12T01:14:22;96385.84;;;13.97;58.83
50977;BME280;36992;48.200;12.418;2023-05-12T01:16:51;96384.41;;;13.99;58.19
50977;BME280;36992;48.200;12.418;2023-05-12T01:19:37;96381.84;;;14.03;58.38
50977;BME280;36992;48.200;12.418;2023-05-12T01:22:06;96386.31;;;13.99;58.22
50977;BME280;36992;48.200;12.418;2023-05-12T01:24:35;96391.72;;;13.99;58.68
50977;BME280;36992;48.200;12.418;2023-05-12T01:27:05;96382.50;;;14.00;58.14
50977;BME280;36992;48.200;12.418;2023-05-12T01:29:33;96383.94;;;13.97;58.49
50977;BME280;36992;48.200;12.418;2023-05-12T01:32:00;96384.72;;;13.98;58.55
50977;BME280;36992;48.200;12.418;2023-05-12T01:34:27;96380.44;;;13.97;58.72
50977;BME280;36992;48.200;12.418;2023-05-12T01:36:53;96381.56;;;13.96;58.44
50977;BME280;36992;48.200;12.418;2023-05-12T01:39:20;96377.59;;;13.93;58.69
50977;BME280;36992;48.200;12.418;2023-05-12T01:41:46;96384.13;;;13.92;58.52
50977;BME280;36992;48.200;12.418;2023-05-12T01:44:14;96383.78;;;13.94;58.49
50977;BME280;36992;48.200;12.418;2023-05-12T01:46:41;96393.69;;;13.89;59.01
50977;BME280;36992;48.200;12.418;2023-05-12T01:49:07;96397.47;;;13.88;58.95
50977;BME280;36992;48.200;12.418;2023-05-12T01:51:34;96387.78;;;13.87;58.84
50977;BME280;36992;48.200;12.418;2023-05-12T01:54:00;96392.72;;;13.85;58.63
50977;BME280;36992;48.200;12.418;2023-05-12T01:56:27;96385.72;;;13.84;58.92
50977;BME280;36992;48.200;12.418;2023-05-12T01:58:54;96384.13;;;13.83;58.91
50977;BME280;36992;48.200;12.418;2023-05-12T02:01:21;96383.31;;;13.83;58.82
50977;BME280;36992;48.200;12.418;2023-05-12T02:03:49;96384.75;;;13.80;58.84
50977;BME280;36992;48.200;12.418;2023-05-12T02:06:16;96388.59;;;13.79;58.76
50977;BME280;36992;48.200;12.418;2023-05-12T02:08:42;96388.59;;;13.79;58.76
50977;BME280;36992;48.200;12.418;2023-05-12T02:11:09;96390.50;;;13.79;58.74
50977;BME280;36992;48.200;12.418;2023-05-12T02:13:35;96389.41;;;13.80;58.74
50977;BME280;36992;48.200;12.418;2023-05-12T02:16:02;96388.59;;;13.79;58.56
50977;BME280;36992;48.200;12.418;2023-05-12T02:18:30;96387.94;;;13.82;58.65
50977;BME280;36992;48.200;12.418;2023-05-12T02:20:57;96383.97;;;13.80;58.38
50977;BME280;36992;48.200;12.418;2023-05-12T02:23:24;96390.19;;;13.80;58.40
50977;BME280;36992;48.200;12.418;2023-05-12T02:25:50;96391.75;;;13.81;58.58
50977;BME280;36992;48.200;12.418;2023-05-12T02:28:17;96384.91;;;13.84;58.51
50977;BME280;36992;48.200;12.418;2023-05-12T02:30:44;96389.19;;;13.85;58.84
50977;BME280;36992;48.200;12.418;2023-05-12T02:33:13;96395.44;;;13.85;58.21
50977;BME280;36992;48.200;12.418;2023-05-12T02:35:42;96386.66;;;13.88;58.46
50977;BME280;36992;48.200;12.418;2023-05-12T02:38:09;96385.06;;;13.87;58.67
50977;BME280;36992;48.200;12.418;2023-05-12T02:40:35;96377.75;;;13.88;58.53
50977;BME280;36992;48.200;12.418;2023-05-12T02:43:02;96384.28;;;13.87;58.48
50977;BME280;36992;48.200;12.418;2023-05-12T02:45:28;96380.47;;;13.88;58.33
50977;BME280;36992;48.200;12.418;2023-05-12T02:47:55;96370.41;;;13.88;58.52
50977;BME280;36992;48.200;12.418;2023-05-12T02:50:21;96375.81;;;13.88;58.45
50977;BME280;36992;48.200;12.418;2023-05-12T02:52:49;96371.69;;;13.91;58.32
50977;BME280;36992;48.200;12.418;2023-05-12T02:55:16;96372.00;;;13.89;58.44
50977;BME280;36992;48.200;12.418;2023-05-12T02:57:43;96370.91;;;13.91;58.53
50977;BME280;36992;48.200;12.418;2023-05-12T03:00:10;96366.59;;;13.89;58.01
50977;BME280;36992;48.200;12.418;2023-05-12T03:02:38;96373.59;;;13.91;58.00
50977;BME280;36992;48.200;12.418;2023-05-12T03:05:05;96369.31;;;13.89;58.03
50977;BME280;36992;48.200;12.418;2023-05-12T03:07:32;96373.59;;;13.91;58.18
50977;BME280;36992;48.200;12.418;2023-05-12T03:10:00;96376.78;;;13.93;57.99
50977;BME280;36992;48.200;12.418;2023-05-12T03:12:27;96381.41;;;13.92;58.22
50977;BME280;36992;48.200;12.418;2023-05-12T03:14:54;96371.34;;;13.93;58.39
50977;BME280;36992;48.200;12.418;2023-05-12T03:17:21;96378.34;;;13.94;58.19
50977;BME280;36992;48.200;12.418;2023-05-12T03:19:47;96375.66;;;13.94;58.29
50977;BME280;36992;48.200;12.418;2023-05-12T03:22:14;96372.94;;;13.94;58.40
50977;BME280;36992;48.200;12.418;2023-05-12T03:24:40;96375.66;;;13.94;58.46
50977;BME280;36992;48.200;12.418;2023-05-12T03:27:08;96374.53;;;13.95;58.33
50977;BME280;36992;48.200;12.418;2023-05-12T03:29:35;96383.00;;;13.93;58.67
50977;BME280;36992;48.200;12.418;2023-05-12T03:32:01;96382.19;;;13.93;58.07
50977;BME280;36992;48.200;12.418;2023-05-12T03:34:28;96381.06;;;13.94;58.31
50977;BME280;36992;48.200;12.418;2023-05-12T03:36:55;96383.78;;;13.94;58.43
50977;BME280;36992;48.200;12.418;2023-05-12T03:39:22;96387.59;;;13.93;58.42
50977;BME280;36992;48.200;12.418;2023-05-12T03:41:49;96384.13;;;13.92;58.52
50977;BME280;36992;48.200;12.418;2023-05-12T03:44:17;96381.41;;;13.92;58.46
50977;BME280;36992;48.200;12.418;2023-05-12T03:46:43;96384.44;;;13.91;58.46
50977;BME280;36992;48.200;12.418;2023-05-12T03:49:10;96389.34;;;13.88;58.56
50977;BME280;36992;48.200;12.418;2023-05-12T03:51:36;96387.00;;;13.87;58.46
50977;BME280;36992;48.200;12.418;2023-05-12T03:54:03;96386.50;;;13.85;58.78
50977;BME280;36992;48.200;12.418;2023-05-12T03:56:30;96393.34;;;13.82;58.72
50977;BME280;36992;48.200;12.418;2023-05-12T03:58:56;96387.47;;;13.80;58.98
50977;BME280;36992;48.200;12.418;2023-05-12T04:01:24;96391.28;;;13.79;58.78
50977;BME280;36992;48.200;12.418;2023-05-12T04:03:50;96395.75;;;13.75;58.71
50977;BME280;36992;48.200;12.418;2023-05-12T04:06:17;96396.09;;;13.73;58.15
50977;BME280;36992;48.200;12.418;2023-05-12T04:08:43;96398.31;;;13.71;59.06
50977;BME280;36992;48.200;12.418;2023-05-12T04:11:10;96397.53;;;13.71;58.65
50977;BME280;36992;48.200;12.418;2023-05-12T04:13:36;96399.44;;;13.70;58.48
50977;BME280;36992;48.200;12.418;2023-05-12T04:16:04;96404.03;;;13.70;58.98
50977;BME280;36992;48.200;12.418;2023-05-12T04:18:32;96402.59;;;13.72;58.85
50977;BME280;36992;48.200;12.418;2023-05-12T04:20:59;96408.34;;;13.71;59.14
50977;BME280;36992;48.200;12.418;2023-05-12T04:23:26;96404.03;;;13.70;58.84
50977;BME280;36992;48.200;12.418;2023-05-12T04:25:53;96409.13;;;13.71;58.87
50977;BME280;36992;48.200;12.418;2023-05-12T04:28:20;96409.13;;;13.71;58.57
50977;BME280;36992;48.200;12.418;2023-05-12T04:30:46;96412.16;;;13.70;58.46
50977;BME280;36992;48.200;12.418;2023-05-12T04:33:13;96412.97;;;13.70;58.08
50977;BME280;36992;48.200;12.418;2023-05-12T04:35:41;96416.13;;;13.72;58.44
50977;BME280;36992;48.200;12.418;2023-05-12T04:38:07;96416.78;;;13.69;58.24
50977;BME280;36992;48.200;12.418;2023-05-12T04:40:34;96415.97;;;13.69;58.14
50977;BME280;36992;48.200;12.418;2023-05-12T04:43:00;96419.81;;;13.68;58.16
50977;BME280;36992;48.200;12.418;2023-05-12T04:45:27;96420.13;;;13.66;58.18
50977;BME280;36992;48.200;12.418;2023-05-12T04:47:53;96423.63;;;13.67;58.29
50977;BME280;36992;48.200;12.418;2023-05-12T04:50:20;96423.94;;;13.65;58.33
50977;BME280;36992;48.200;12.418;2023-05-12T04:52:48;96427.47;;;13.66;58.42
50977;BME280;36992;48.200;12.418;2023-05-12T04:55:14;96422.66;;;13.62;58.55
50977;BME280;36992;48.200;12.418;2023-05-12T04:57:41;96421.09;;;13.61;58.30
50977;BME280;36992;48.200;12.418;2023-05-12T05:00:08;96430.78;;;13.62;58.27
50977;BME280;36992;48.200;12.418;2023-05-12T05:02:35;96428.09;;;13.62;58.36
50977;BME280;36992;48.200;12.418;2023-05-12T05:05:02;96433.50;;;13.62;58.38
50977;BME280;36992;48.200;12.418;2023-05-12T05:07:28;96435.88;;;13.64;58.62
50977;BME280;36992;48.200;12.418;2023-05-12T05:09:56;96434.47;;;13.67;58.39
50977;BME280;36992;48.200;12.418;2023-05-12T05:12:23;96439.06;;;13.66;58.57
50977;BME280;36992;48.200;12.418;2023-05-12T05:14:50;96438.28;;;13.66;58.35
50977;BME280;36992;48.200;12.418;2023-05-12T05:17:16;96430.94;;;13.66;58.35
50977;BME280;36992;48.200;12.418;2023-05-12T05:19:43;96433.34;;;13.68;58.08
50977;BME280;36992;48.200;12.418;2023-05-12T05:22:10;96442.56;;;13.67;57.98
50977;BME280;36992;48.200;12.418;2023-05-12T05:24:37;96439.06;;;13.66;58.14
50977;BME280;36992;48.200;12.418;2023-05-12T05:27:05;96440.69;;;13.67;58.11
50977;BME280;36992;48.200;12.418;2023-05-12T05:29:32;96442.13;;;13.65;58.34
50977;BME280;36992;48.200;12.418;2023-05-12T05:31:58;96443.19;;;13.63;58.27
50977;BME280;36992;48.200;12.418;2023-05-12T05:34:24;96443.53;;;13.62;58.39
50977;BME280;36992;48.200;12.418;2023-05-12T05:36:51;96445.44;;;13.61;58.53
50977;BME280;36992;48.200;12.418;2023-05-12T05:39:17;96444.97;;;13.59;58.62
50977;BME280;36992;48.200;12.418;2023-05-12T05:41:44;96455.47;;;13.61;58.59
50977;BME280;36992;48.200;12.418;2023-05-12T05:44:12;96452.44;;;13.62;58.28
50977;BME280;36992;48.200;12.418;2023-05-12T05:46:38;96455.94;;;13.63;58.24
50977;BME280;36992;48.200;12.418;2023-05-12T05:49:05;96452.94;;;13.65;58.18
50977;BME280;36992;48.200;12.418;2023-05-12T05:51:31;96448.31;;;13.65;58.43
50977;BME280;36992;48.200;12.418;2023-05-12T05:53:58;96452.94;;;13.65;58.09
50977;BME280;36992;48.200;12.418;2023-05-12T05:56:24;96449.09;;;13.66;58.21
50977;BME280;36992;48.200;12.418;2023-05-12T05:58:51;96453.09;;;13.68;58.30
50977;BME280;36992;48.200;12.418;2023-05-12T06:01:19;96460.88;;;13.70;58.42
50977;BME280;36992;48.200;12.418;2023-05-12T06:03:45;96464.69;;;13.69;58.54
50977;BME280;36992;48.200;12.418;2023-05-12T06:06:12;96463.59;;;13.70;58.45
50977;BME280;36992;48.200;12.418;2023-05-12T06:08:38;96460.09;;;13.69;58.66
50977;BME280;36992;48.200;12.418;2023-05-12T06:11:05;96464.69;;;13.69;57.99
50977;BME280;36992;48.200;12.418;2023-05-12T06:13:31;96461.53;;;13.67;58.16
50977;BME280;36992;48.200;12.418;2023-05-12T06:15:58;96472.34;;;13.67;58.81
50977;BME280;36992;48.200;12.418;2023-05-12T06:18:26;96466.94;;;13.67;58.85
50977;BME280;36992;48.200;12.418;2023-05-12T06:20:52;96469.19;;;13.65;59.24
50977;BME280;36992;48.200;12.418;2023-05-12T06:23:19;96473.78;;;13.64;58.54
50977;BME280;36992;48.200;12.418;2023-05-12T06:25:47;96477.75;;;13.67;58.44
50977;BME280;36992;48.200;12.418;2023-05-12T06:28:14;96480.00;;;13.65;58.32
50977;BME280;36992;48.200;12.418;2023-05-12T06:30:41;96471.88;;;13.65;58.63
50977;BME280;36992;48.200;12.418;2023-05-12T06:33:07;96483.19;;;13.67;58.68
50977;BME280;36992;48.200;12.418;2023-05-12T06:35:35;96481.75;;;13.69;58.46
50977;BME280;36992;48.200;12.418;2023-05-12T06:38:01;96475.53;;;13.69;59.14
50977;BME280;36992;48.200;12.418;2023-05-12T06:40:28;96477.91;;;13.70;58.42
50977;BME280;36992;48.200;12.418;2023-05-12T06:42:54;96481.09;;;13.72;58.43
50977;BME280;36992;48.200;12.418;2023-05-12T06:45:21;96482.38;;;13.75;57.89
50977;BME280;36992;48.200;12.418;2023-05-12T06:47:48;96473.13;;;13.76;58.20
50977;BME280;36992;48.200;12.418;2023-05-12T06:50:15;96482.53;;;13.79;58.04
50977;BME280;36992;48.200;12.418;2023-05-12T06:52:43;96475.38;;;13.83;58.47
50977;BME280;36992;48.200;12.418;2023-05-12T06:55:10;96479.97;;;13.82;57.93
50977;BME280;36992;48.200;12.418;2023-05-12T06:57:37;96477.78;;;13.84;58.02
50977;BME280;36992;48.200;12.418;2023-05-12T07:00:04;96480.16;;;13.86;58.33
50977;BME280;36992;48.200;12.418;2023-05-12T07:02:31;96473.28;;;13.88;56.71
50977;BME280;36992;48.200;12.418;2023-05-12T07:04:58;96475.69;;;13.90;57.53
50977;BME280;36992;48.200;12.418;2023-05-12T07:07:24;96474.25;;;13.93;58.08
50977;BME280;36992;48.200;12.418;2023-05-12T07:09:52;96476.34;;;13.96;58.03
50977;BME280;36992;48.200;12.418;2023-05-12T07:12:19;96479.50;;;13.98;58.06
50977;BME280;36992;48.200;12.418;2023-05-12T07:14:45;96475.38;;;14.00;57.71
50977;BME280;36992;48.200;12.418;2023-05-12T07:17:12;96480.63;;;14.06;57.91
50977;BME280;36992;48.200;12.418;2023-05-12T07:19:38;96481.91;;;14.08;58.49
50977;BME280;36992;48.200;12.418;2023-05-12T07:22:05;96475.81;;;14.11;58.40
50977;BME280;36992;48.200;12.418;2023-05-12T07:24:31;96475.97;;;14.15;57.50
50977;BME280;36992;48.200;12.418;2023-05-12T07:26:59;96471.22;;;14.21;57.55
50977;BME280;36992;48.200;12.418;2023-05-12T07:29:26;96461.63;;;14.23;57.18
50977;BME280;36992;48.200;12.418;2023-05-12T07:31:53;96462.88;;;14.26;58.61
50977;BME280;36992;48.200;12.418;2023-05-12T07:34:19;96456.38;;;14.27;57.51
50977;BME280;36992;48.200;12.418;2023-05-12T07:36:46;96463.38;;;14.28;58.08
50977;BME280;36992;48.200;12.418;2023-05-12T07:39:12;96471.97;;;14.30;58.63
50977;BME280;36992;48.200;12.418;2023-05-12T07:41:43;96481.38;;;14.33;58.16
50977;BME280;36992;48.200;12.418;2023-05-12T07:44:11;96481.53;;;14.36;58.02
50977;BME280;36992;48.200;12.418;2023-05-12T07:46:37;96480.88;;;14.39;57.63
50977;BME280;36992;48.200;12.418;2023-05-12T07:49:04;96486.47;;;14.43;58.13
50977;BME280;36992;48.200;12.418;2023-05-12T07:51:31;96486.59;;;14.47;57.08
50977;BME280;36992;48.200;12.418;2023-05-12T07:53:57;96480.53;;;14.50;57.89
50977;BME280;36992;48.200;12.418;2023-05-12T07:56:24;96479.91;;;14.53;57.39
50977;BME280;36992;48.200;12.418;2023-05-12T07:58:51;96474.94;;;14.55;57.56
50977;BME280;36992;48.200;12.418;2023-05-12T08:01:19;96481.00;;;14.61;58.02
50977;BME280;36992;48.200;12.418;2023-05-12T08:03:46;96488.47;;;14.64;57.58
50977;BME280;36992;48.200;12.418;2023-05-12T08:06:15;96489.72;;;14.66;56.60
50977;BME280;36992;48.200;12.418;2023-05-12T08:08:41;96484.59;;;14.74;56.92
50977;BME280;36992;48.200;12.418;2023-05-12T08:11:08;96488.75;;;14.80;57.29
50977;BME280;36992;48.200;12.418;2023-05-12T08:13:35;96487.78;;;14.84;57.62
50977;BME280;36992;48.200;12.418;2023-05-12T08:16:02;96486.00;;;14.89;57.81
50977;BME280;36992;48.200;12.418;2023-05-12T08:18:29;96488.22;;;14.95;57.07
50977;BME280;36992;48.200;12.418;2023-05-12T08:20:56;96484.03;;;14.98;56.67
50977;BME280;36992;48.200;12.418;2023-05-12T08:23:22;96485.78;;;15.03;56.72
50977;BME280;36992;48.200;12.418;2023-05-12T08:25:49;96486.72;;;15.07;56.39
50977;BME280;36992;48.200;12.418;2023-05-12T08:28:15;96482.22;;;15.11;57.25
50977;BME280;36992;48.200;12.418;2023-05-12T08:30:42;96481.09;;;15.12;57.62
50977;BME280;36992;48.200;12.418;2023-05-12T08:33:09;96483.19;;;15.15;56.98
50977;BME280;36992;48.200;12.418;2023-05-12T08:35:37;96481.88;;;15.21;56.32
50977;BME280;36992;48.200;12.418;2023-05-12T08:38:04;96490.00;;;15.21;56.28
50977;BME280;36992;48.200;12.418;2023-05-12T08:40:33;96479.28;;;15.25;56.25
50977;BME280;36992;48.200;12.418;2023-05-12T08:43:06;96488.69;;;15.28;56.35
50977;BME280;36992;48.200;12.418;2023-05-12T08:45:36;96490.13;;;15.25;57.46
50977;BME280;36992;48.200;12.418;2023-05-12T08:48:04;96480.56;;;15.28;57.03
50977;BME280;36992;48.200;12.418;2023-05-12T08:50:31;96483.25;;;15.28;57.23
50977;BME280;36992;48.200;12.418;2023-05-12T08:53:02;96477.66;;;15.33;55.89
50977;BME280;36992;48.200;12.418;2023-05-12T08:55:29;96481.47;;;15.32;55.63
50977;BME280;36992;48.200;12.418;2023-05-12T08:57:57;96481.47;;;15.32;56.79
50977;BME280;36992;48.200;12.418;2023-05-12T09:00:24;96479.25;;;15.34;56.47
50977;BME280;36992;48.200;12.418;2023-05-12T09:02:53;96476.97;;;15.36;56.22
50977;BME280;36992;48.200;12.418;2023-05-12T09:05:20;96480.28;;;15.42;55.46
50977;BME280;36992;48.200;12.418;2023-05-12T09:07:48;96489.38;;;15.46;56.60
50977;BME280;36992;48.200;12.418;2023-05-12T09:10:17;96491.56;;;15.53;56.71
50977;BME280;36992;48.200;12.418;2023-05-12T09:12:46;96496.31;;;15.56;57.23
50977;BME280;36992;48.200;12.418;2023-05-12T09:15:19;96489.25;;;15.63;56.71
50977;BME280;36992;48.200;12.418;2023-05-12T09:17:48;96495.13;;;15.65;57.03
50977;BME280;36992;48.200;12.418;2023-05-12T09:20:15;96494.63;;;15.72;56.56
50977;BME280;36992;48.200;12.418;2023-05-12T09:22:42;96488.50;;;15.75;56.45
50977;BME280;36992;48.200;12.418;2023-05-12T09:25:18;96492.75;;;15.85;56.71
50977;BME280;36992;48.200;12.418;2023-05-12T09:27:46;96495.13;;;15.87;56.84
50977;BME280;36992;48.200;12.418;2023-05-12T09:30:13;96488.41;;;15.93;56.05
50977;BME280;36992;48.200;12.418;2023-05-12T09:32:40;96481.66;;;15.99;54.59
50977;BME280;36992;48.200;12.418;2023-05-12T09:35:08;96484.16;;;16.04;54.28
50977;BME280;36992;48.200;12.418;2023-05-12T09:37:37;96478.53;;;16.10;54.67
50977;BME280;36992;48.200;12.418;2023-05-12T09:40:05;96489.19;;;16.15;54.79
50977;BME280;36992;48.200;12.418;2023-05-12T09:42:34;96487.84;;;16.21;55.75
50977;BME280;36992;48.200;12.418;2023-05-12T09:45:01;96491.34;;;16.22;56.39
50977;BME280;36992;48.200;12.418;2023-05-12T09:47:33;96494.31;;;16.29;55.62
50977;BME280;36992;48.200;12.418;2023-05-12T09:50:00;96492.72;;;16.28;54.93
50977;BME280;36992;48.200;12.418;2023-05-12T09:52:28;96500.56;;;16.29;55.56
50977;BME280;36992;48.200;12.418;2023-05-12T09:54:56;96486.28;;;16.32;56.08
50977;BME280;36992;48.200;12.418;2023-05-12T09:57:24;96495.38;;;16.37;55.40
50977;BME280;36992;48.200;12.418;2023-05-12T09:59:52;96488.91;;;16.41;55.72
50977;BME280;36992;48.200;12.418;2023-05-12T10:02:19;96495.16;;;16.42;55.40
50977;BME280;36992;48.200;12.418;2023-05-12T10:04:49;96488.03;;;16.50;55.33
50977;BME280;36992;48.200;12.418;2023-05-12T10:07:16;96486.59;;;16.52;55.07
50977;BME280;36992;48.200;12.418;2023-05-12T10:09:44;96485.56;;;16.57;55.04
50977;BME280;36992;48.200;12.418;2023-05-12T10:12:11;96484.88;;;16.60;54.58
50977;BME280;36992;48.200;12.418;2023-05-12T10:14:39;96487.06;;;16.67;54.43
50977;BME280;36992;48.200;12.418;2023-05-12T10:17:08;96480.94;;;16.70;53.75
50977;BME280;36992;48.200;12.418;2023-05-12T10:19:35;96491.81;;;16.70;54.32
50977;BME280;36992;48.200;12.418;2023-05-12T10:22:04;96486.84;;;16.72;54.30
50977;BME280;36992;48.200;12.418;2023-05-12T10:24:31;96488.75;;;16.71;54.51
50977;BME280;36992;48.200;12.418;2023-05-12T10:26:58;96484.91;;;16.72;54.63
50977;BME280;36992;48.200;12.418;2023-05-12T10:29:28;96497.03;;;16.75;54.27
50977;BME280;36992;48.200;12.418;2023-05-12T10:31:57;96480.72;;;16.75;53.77
50977;BME280;36992;48.200;12.418;2023-05-12T10:34:32;96480.94;;;16.82;55.14
50977;BME280;36992;48.200;12.418;2023-05-12T10:36:59;96484.34;;;16.79;55.04
50977;BME280;36992;48.200;12.418;2023-05-12T10:39:28;96483.66;;;16.82;54.79
50977;BME280;36992;48.200;12.418;2023-05-12T10:42:00;96501.03;;;16.90;55.15
50977;BME280;36992;48.200;12.418;2023-05-12T10:44:29;96496.72;;;16.89;54.37
50977;BME280;36992;48.200;12.418;2023-05-12T10:46:56;96493.34;;;16.92;54.78
50977;BME280;36992;48.200;12.418;2023-05-12T10:49:32;96488.88;;;17.00;55.04
50977;BME280;36992;48.200;12.418;2023-05-12T10:52:01;96491.63;;;17.00;54.68
50977;BME280;36992;48.200;12.418;2023-05-12T10:54:28;96493.38;;;17.05;54.92
50977;BME280;36992;48.200;12.418;2023-05-12T10:56:57;96491.66;;;17.12;54.42
50977;BME280;36992;48.200;12.418;2023-05-12T10:59:24;96498.22;;;17.11;53.96
50977;BME280;36992;48.200;12.418;2023-05-12T11:01:56;96490.66;;;17.17;54.94
50977;BME280;36992;48.200;12.418;2023-05-12T11:04:36;96493.47;;;17.21;53.69
50977;BME280;36992;48.200;12.418;2023-05-12T11:07:05;96491.75;;;17.16;53.79
50977;BME280;36992;48.200;12.418;2023-05-12T11:09:34;96499.91;;;17.16;54.44
50977;BME280;36992;48.200;12.418;2023-05-12T11:12:00;96494.94;;;17.18;53.49
50977;BME280;36992;48.200;12.418;2023-05-12T11:14:27;96497.78;;;17.22;51.84
50977;BME280;36992;48.200;12.418;2023-05-12T11:16:54;96498.66;;;17.26;52.75
50977;BME280;36992;48.200;12.418;2023-05-12T11:19:20;96500.72;;;17.29;51.84
50977;BME280;36992;48.200;12.418;2023-05-12T11:21:48;96501.63;;;17.33;52.35
50977;BME280;36992;48.200;12.418;2023-05-12T11:24:15;96498.56;;;17.35;52.92
50977;BME280;36992;48.200;12.418;2023-05-12T11:26:42;96505.94;;;17.34;52.63
50977;BME280;36992;48.200;12.418;2023-05-12T11:29:08;96505.56;;;17.36;53.05
50977;BME280;36992;48.200;12.418;2023-05-12T11:31:35;96502.53;;;17.37;53.17
50977;BME280;36992;48.200;12.418;2023-05-12T11:34:03;96508.78;;;17.38;52.37
50977;BME280;36992;48.200;12.418;2023-05-12T11:36:35;96509.66;;;17.42;52.43
50977;BME280;36992;48.200;12.418;2023-05-12T11:39:03;96511.94;;;17.40;52.20
50977;BME280;36992;48.200;12.418;2023-05-12T11:42:14;96516.72;;;17.43;52.83
50977;BME280;36992;48.200;12.418;2023-05-12T11:45:18;96522.38;;;17.38;52.67
50977;BME280;36992;48.200;12.418;2023-05-12T11:48:10;96519.56;;;17.34;53.16
50977;BME280;36992;48.200;12.418;2023-05-12T11:50:49;96518.53;;;17.26;52.42
50977;BME280;36992;48.200;12.418;2023-05-12T11:53:30;96523.88;;;17.23;52.17
50977;BME280;36992;48.200;12.418;2023-05-12T11:56:22;96529.97;;;17.20;52.67
50977;BME280;36992;48.200;12.418;2023-05-12T11:58:56;96520.91;;;17.16;53.22
50977;BME280;36992;48.200;12.418;2023-05-12T12:01:42;96518.19;;;17.16;53.19
50977;BME280;36992;48.200;12.418;2023-05-12T12:04:16;96532.03;;;17.10;53.42
50977;BME280;36992;48.200;12.418;2023-05-12T12:06:51;96525.53;;;17.03;53.21
50977;BME280;36992;48.200;12.418;2023-05-12T12:09:17;96531.00;;;17.03;53.18
50977;BME280;36992;48.200;12.418;2023-05-12T12:11:44;96524.78;;;17.02;53.69
50977;BME280;36992;48.200;12.418;2023-05-12T12:14:12;96531.47;;;17.05;52.98
50977;BME280;36992;48.200;12.418;2023-05-12T12:16:38;96528.56;;;17.01;53.58
50977;BME280;36992;48.200;12.418;2023-05-12T12:19:05;96529.38;;;17.02;53.53
50977;BME280;36992;48.200;12.418;2023-05-12T12:21:32;96528.56;;;17.01;53.14
50977;BME280;36992;48.200;12.418;2023-05-12T12:23:59;96527.78;;;17.01;53.81
50977;BME280;36992;48.200;12.418;2023-05-12T12:26:26;96529.72;;;17.00;53.33
50977;BME280;36992;48.200;12.418;2023-05-12T12:28:52;96532.44;;;17.00;53.52
50977;BME280;36992;48.200;12.418;2023-05-12T12:31:20;96534.00;;;17.01;53.71
50977;BME280;36992;48.200;12.418;2023-05-12T12:33:46;96530.84;;;16.99;53.47
50977;BME280;36992;48.200;12.418;2023-05-12T12:36:13;96536.28;;;16.99;53.31
50977;BME280;36992;48.200;12.418;2023-05-12T12:38:39;96528.94;;;16.99;53.60
50977;BME280;36992;48.200;12.418;2023-05-12T12:41:06;96534.69;;;16.98;52.90
50977;BME280;36992;48.200;12.418;2023-05-12T12:43:32;96538.22;;;16.98;53.05
50977;BME280;36992;48.200;12.418;2023-05-12T12:45:59;96531.53;;;16.96;53.07
50977;BME280;36992;48.200;12.418;2023-05-12T12:48:27;96548.31;;;16.98;54.16
50977;BME280;36992;48.200;12.418;2023-05-12T12:50:54;96545.47;;;16.94;53.61
50977;BME280;36992;48.200;12.418;2023-05-12T12:53:20;96535.38;;;16.95;54.17